Latest Weather Observations for Camden

IDN60801

Issued at 7:32 pm EST Monday 1 June 2020 (issued every 10 minutes, with the page automatically refreshed every 10 minutes)

About weather observations | Map of weather stations | Latest weather observations for NSW | Other Formats
Station Details ID: 068192 Name: CAMDEN AIRPORT AWS Lat: -34.04 Lon: 150.69 Height: 73.9 m
Data from the previous 72 hours. | See also: Recent months at Camden
Date/Time
EST
Temp
°C
App
Temp
°C
Dew
Point
°C
Rel
Hum
%
Delta-T
°C
Wind Press
QNH
hPa
Press
MSL
hPa
Rain since
9am
mm
Dir  Spd
km/h
Gust
km/h
Spd
kts
Gust
kts
01/07:30pm 11.5 5.8 3.0 56 3.7 WSW 22 32 12 17 1012.0 1012.1 0.2
01/07:00pm 11.7 5.3 3.2 56 3.8 WSW 26 35 14 19 1011.6 1011.7 0.2
01/06:30pm 12.7 7.6 3.9 55 4.0 WSW 20 30 11 16 1011.1 1011.2 0.2
01/06:00pm 12.9 7.9 4.6 57 3.8 W 20 30 11 16 1010.5 1010.6 0.2
01/05:30pm 13.0 7.3 6.6 65 3.1 WSW 26 37 14 20 1010.0 1010.1 0.2
01/05:18pm 15.0 8.1 4.4 49 4.9 WSW 30 48 16 26 1009.5 1009.6 0.0
01/05:10pm 15.7 9.4 3.8 45 5.5 W 26 48 14 26 1009.2 1009.3 0.0
01/05:00pm 16.2 12.1 4.3 45 5.6 WNW 15 24 8 13 1008.8 1008.9 0.0
01/04:30pm 17.1 10.8 3.8 41 6.2 WNW 26 39 14 21 1008.0 1008.0 0.0
01/04:00pm 18.5 10.9 2.8 35 7.3 NW 32 43 17 23 1007.1 1007.1 0.0
01/03:30pm 19.4 13.3 2.7 33 7.8 NNW 24 33 13 18 1006.5 1006.5 0.0
01/03:00pm 20.4 15.0 2.3 30 8.5 NW 20 33 11 18 1006.3 1006.3 0.0
01/02:30pm 20.4 13.8 2.3 30 8.4 WNW 26 35 14 19 1006.1 1006.1 0.0
01/02:00pm 21.0 14.0 1.8 28 8.9 WNW 28 44 15 24 1005.7 1005.7 0.0
01/01:30pm 21.3 14.9 3.0 30 8.7 WNW 26 37 14 20 1005.6 1005.6 0.0
01/01:00pm 22.1 17.2 5.1 33 8.5 NW 20 35 11 19 1005.7 1005.7 0.0
01/12:30pm 22.2 16.7 3.8 30 8.9 NW 22 32 12 17 1006.1 1006.1 0.0
01/12:14pm 21.8 15.1 3.5 30 8.8 NW 28 48 15 26 1006.4 1006.4 0.0
01/12:08pm 21.8 16.8 4.4 32 8.5 NNW 20 43 11 23 1006.4 1006.4 0.0
01/12:00pm 21.5 17.2 7.0 39 7.5 NNW 19 28 10 15 1006.5 1006.5 0.0
01/11:30am 20.6 18.3 8.9 47 6.2 N 11 17 6 9 1007.2 1007.2 0.0
01/11:00am 19.5 16.6 9.7 53 5.2 N 15 22 8 12 1007.7 1007.7 0.0
01/10:30am 17.9 15.8 9.8 59 4.3 NNW 11 17 6 9 1008.4 1008.5 0.0
01/10:00am 15.9 14.2 10.0 68 3.1 NNW 9 11 5 6 1009.1 1009.2 0.0
01/09:30am 13.6 12.3 10.0 79 1.9 NNW 7 13 4 7 1009.5 1009.5 0.0
01/09:00am 9.8 9.5 8.6 92 0.6 CALM 0 0 0 0 1009.7 1009.7 0.0
01/08:30am 8.0 7.5 7.9 99 0.0 CALM 0 0 0 0 1010.1 1010.1 0.0
01/08:00am 6.7 5.9 6.6 99 0.0 CALM 0 0 0 0 1010.1 1010.1 0.0
01/07:52am 6.4 5.2 6.3 99 0.0 NNE 2 9 1 5 1010.2 1010.2 0.0
01/07:30am 5.0 3.9 4.9 99 0.0 CALM 0 0 0 0 1010.3 1010.3 0.0
01/07:00am 5.3 4.2 5.2 99 0.0 CALM 0 0 0 0 1010.2 1010.2 0.0
01/06:50am 5.5 4.5 5.4 99 0.0 CALM 0 0 0 0 1010.3 1010.3 0.0
01/06:48am 5.5 4.5 5.4 99 0.0 CALM 0 6 0 3 1010.2 1010.2 0.0
01/06:35am 5.4 4.3 5.3 99 0.0 CALM 0 0 0 0 1010.3 1010.3 0.0
01/06:30am 5.3 4.2 5.2 99 0.0 CALM 0 0 0 0 1010.2 1010.2 0.0
01/06:21am 5.0 3.9 4.9 99 0.0 CALM 0 0 0 0 1010.2 1010.2 0.0
01/06:02am 5.6 4.6 5.5 99 0.0 CALM 0 0 0 0 1010.3 1010.3 0.0
01/06:00am 5.8 4.8 5.7 99 0.0 CALM 0 0 0 0 1010.2 1010.2 0.0
01/05:30am 5.9 4.9 5.8 99 0.0 CALM 0 0 0 0 1010.4 1010.4 0.0
01/05:00am 6.3 5.4 6.2 99 0.0 CALM 0 0 0 0 1010.5 1010.5 0.0
01/04:30am 6.1 5.2 6.0 99 0.0 CALM 0 0 0 0 1010.6 1010.6 0.0
01/04:00am 6.7 5.9 6.6 99 0.0 CALM 0 0 0 0 1010.7 1010.7 0.0
01/03:30am 6.4 5.6 6.3 99 0.0 CALM 0 0 0 0 1011.2 1011.2 0.0
01/03:00am 6.6 5.4 6.5 99 0.0 WNW 2 6 1 3 1011.5 1011.5 0.0
01/02:30am 7.0 5.9 6.9 99 0.0 SE 2 6 1 3 1011.8 1011.8 0.0
01/02:00am 7.1 6.4 7.0 99 0.0 CALM 0 0 0 0 1012.3 1012.3 0.0
01/01:30am 6.1 5.2 6.0 99 0.0 CALM 0 0 0 0 1012.6 1012.6 0.0
01/01:00am 6.7 5.9 6.6 99 0.0 CALM 0 0 0 0 1013.0 1013.0 0.0
01/12:30am 6.9 6.2 6.8 99 0.0 CALM 0 0 0 0 1013.4 1013.4 0.0
01/12:00am 6.9 5.3 6.5 97 0.2 SSW 4 9 2 5 1013.9 1013.9 0.0
 
Date/Time
EST
Temp
°C
App
Temp
°C
Dew
Point
°C
Rel
Hum
%
Delta-T
°C
Wind Press
QNH
hPa
Press
MSL
hPa
Rain since
9am
mm
Dir  Spd
km/h
Gust
km/h
Spd
kts
Gust
kts
31/11:30pm 7.5 6.8 6.9 96 0.3 CALM 0 0 0 0 1014.2 1014.2 0.0
31/11:00pm 8.0 7.3 7.1 94 0.4 CALM 0 0 0 0 1014.4 1014.4 0.0
31/10:30pm 8.7 8.1 7.5 92 0.6 CALM 0 0 0 0 1014.6 1014.6 0.0
31/10:00pm 9.3 8.8 7.7 90 0.8 CALM 0 0 0 0 1014.7 1014.7 0.0
31/09:30pm 10.2 8.4 7.1 81 1.5 SSE 6 7 3 4 1014.9 1014.9 0.0
31/09:00pm 10.1 9.5 7.3 83 1.3 CALM 0 0 0 0 1015.1 1015.1 0.0
31/08:30pm 11.7 11.2 8.0 78 1.8 CALM 0 0 0 0 1015.2 1015.2 0.0
31/08:00pm 10.8 10.2 7.3 79 1.7 CALM 0 0 0 0 1015.6 1015.5 0.0
31/07:30pm 10.3 8.5 7.2 81 1.5 NNE 6 9 3 5 1015.8 1015.7 0.0
31/07:00pm 12.2 10.2 7.1 71 2.5 SSE 7 9 4 5 1015.9 1015.8 0.0
31/06:30pm 13.5 12.8 7.1 65 3.1 CALM 0 0 0 0 1016.0 1015.9 0.0
31/06:00pm 14.2 11.6 6.3 59 3.8 N 9 11 5 6 1015.8 1015.7 0.0
31/05:30pm 14.3 12.4 7.4 63 3.4 NNW 7 11 4 6 1015.5 1015.4 0.0
31/05:00pm 16.3 14.5 9.3 63 3.6 NW 9 15 5 8 1015.5 1015.4 0.0
31/04:30pm 17.3 15.1 9.5 60 4.1 N 11 13 6 7 1015.3 1015.3 0.0
31/04:00pm 19.5 17.9 10.2 55 5.0 N 9 11 5 6 1015.2 1015.2 0.0
31/03:30pm 19.7 18.3 10.9 57 4.8 N 9 11 5 6 1015.2 1015.2 0.0
31/03:00pm 19.9 18.9 10.9 56 4.9 N 7 13 4 7 1015.5 1015.4 0.0
31/02:30pm 20.1 19.3 11.8 59 4.6 NNE 7 11 4 6 1015.7 1015.6 0.0
31/02:00pm 19.1 18.0 12.1 64 3.9 NNE 9 15 5 8 1015.9 1015.8 0.0
31/01:30pm 17.7 18.5 12.6 72 2.8 CALM 0 6 0 3 1016.1 1016.0 0.0
31/01:00pm 16.0 16.7 12.2 78 2.1 CALM 0 7 0 4 1016.7 1016.6 0.0
31/12:30pm 14.3 13.2 11.8 85 1.3 W 9 11 5 6 1017.5 1017.4 0.0
31/12:05pm 13.0 13.9 12.8 99 0.1 CALM 0 2 0 1 1017.7 1017.6 0.0
31/12:00pm 12.7 13.1 12.5 99 0.1 NNW 2 7 1 4 1017.8 1017.7 0.0
31/11:57am 12.8 13.2 12.6 99 0.1 N 2 7 1 4 1017.8 1017.7 0.0
31/11:30am 11.3 11.7 11.3 100 0.0 CALM 0 0 0 0 1018.5 1018.5 0.0
31/11:00am 11.0 11.3 11.0 100 0.0 CALM 0 0 0 0 1018.9 1018.9 0.0
31/10:30am 10.6 10.1 10.6 100 0.0 WSW 4 7 2 4 1019.3 1019.3 0.0
31/10:00am 10.3 10.4 10.3 100 0.0 CALM 0 0 0 0 1019.6 1019.6 0.0
31/09:30am 10.2 10.3 10.2 100 0.0 CALM 0 0 0 0 1019.9 1019.9 0.0
31/09:00am 10.1 8.8 10.1 100 0.0 SSW 7 11 4 6 1019.8 1019.8 0.0
31/08:30am 9.5 9.4 9.4 99 0.0 CALM 0 0 0 0 1019.4 1019.4 0.0
31/08:00am 8.9 8.6 8.8 99 0.0 CALM 0 0 0 0 1019.6 1019.6 0.0
31/07:30am 8.5 8.1 8.4 99 0.0 CALM 0 0 0 0 1019.8 1019.8 0.0
31/07:00am 8.0 7.5 7.9 99 0.0 CALM 0 0 0 0 1019.6 1019.6 0.0
31/06:30am 7.2 6.5 7.1 99 0.0 CALM 0 0 0 0 1019.5 1019.5 0.0
31/06:00am 7.0 6.3 6.9 99 0.0 CALM 0 0 0 0 1019.5 1019.5 0.0
31/05:48am 7.3 6.7 7.2 99 0.0 CALM 0 0 0 0 1019.7 1019.7 0.0
31/05:47am 7.4 6.8 7.3 99 0.0 CALM 0 0 0 0 1019.7 1019.7 0.0
31/05:31am 7.5 6.9 7.4 99 0.0 CALM 0 0 0 0 1019.9 1019.9 0.0
31/05:30am 7.4 6.8 7.3 99 0.0 CALM 0 0 0 0 1019.9 1019.9 0.0
31/05:00am 7.5 6.9 7.4 99 0.0 CALM 0 0 0 0 1019.8 1019.8 0.0
31/04:30am 7.8 7.3 7.7 99 0.0 CALM 0 0 0 0 1019.9 1019.9 0.0
31/04:00am 7.5 6.9 7.4 99 0.0 CALM 0 0 0 0 1019.8 1019.8 0.0
31/03:30am 7.5 6.9 7.4 99 0.0 CALM 0 0 0 0 1019.9 1019.9 0.0
31/03:00am 7.5 6.9 7.4 99 0.0 CALM 0 0 0 0 1020.1 1020.1 0.0
31/02:30am 7.1 6.4 7.0 99 0.0 CALM 0 0 0 0 1020.3 1020.3 0.0
31/02:05am 6.8 6.0 6.7 99 0.0 CALM 0 6 0 3 1020.4 1020.4 0.0
31/02:00am 7.0 5.5 6.9 99 0.0 NE 4 6 2 3 1020.5 1020.5 0.0
31/01:30am 6.8 5.7 6.7 99 0.0 NE 2 6 1 3 1020.9 1020.9 0.0
31/01:00am 6.7 5.9 6.6 99 0.0 CALM 0 0 0 0 1021.0 1021.0 0.0
31/12:30am 6.8 6.0 6.7 99 0.0 CALM 0 0 0 0 1021.1 1021.1 0.0
31/12:00am 6.8 5.3 6.7 99 0.0 S 4 7 2 4 1021.3 1021.3 0.0
 
Date/Time
EST
Temp
°C
App
Temp
°C
Dew
Point
°C
Rel
Hum
%
Delta-T
°C
Wind Press
QNH
hPa
Press
MSL
hPa
Rain since
9am
mm
Dir  Spd
km/h
Gust
km/h
Spd
kts
Gust
kts
30/11:59pm 6.8 5.7 6.7 99 0.0 S 2 7 1 4 1021.3 1021.3 0.0
30/11:58pm 6.8 5.7 6.7 99 0.0 S 2 7 1 4 1021.3 1021.3 0.0
30/11:45pm 7.2 6.5 7.1 99 0.0 CALM 0 0 0 0 1021.3 1021.3 0.0
30/11:30pm 7.4 6.8 7.3 99 0.0 CALM 0 0 0 0 1021.5 1021.5 0.0
30/11:00pm 7.4 6.8 7.3 99 0.0 CALM 0 0 0 0 1021.8 1021.8 0.0
30/10:30pm 8.0 7.5 7.9 99 0.0 CALM 0 0 0 0 1022.2 1022.2 0.0
30/10:00pm 8.6 8.3 8.5 99 0.0 CALM 0 0 0 0 1022.4 1022.4 0.0
30/09:30pm 9.0 8.8 8.9 99 0.0 CALM 0 0 0 0 1022.6 1022.6 0.0
30/09:12pm 8.9 8.6 8.8 99 0.0 CALM 0 0 0 0 1022.7 1022.7 0.0
30/09:00pm 9.4 9.2 9.1 98 0.1 CALM 0 0 0 0 1022.8 1022.8 0.0
30/08:30pm 9.8 9.7 9.3 97 0.2 CALM 0 6 0 3 1023.0 1023.0 0.0
30/08:00pm 9.9 9.7 9.0 94 0.4 CALM 0 0 0 0 1023.4 1023.4 0.0
30/07:30pm 11.1 11.3 10.5 96 0.3 CALM 0 0 0 0 1023.5 1023.5 0.0
30/07:00pm 11.5 11.5 9.9 90 0.8 CALM 0 0 0 0 1023.5 1023.5 0.0
30/06:30pm 12.0 12.1 10.2 89 0.9 CALM 0 0 0 0 1023.4 1023.4 0.0
30/06:00pm 14.4 13.5 10.8 79 1.9 ENE 6 11 3 6 1023.0 1023.0 0.0
30/05:30pm 15.1 14.1 10.3 73 2.5 NE 6 7 3 4 1022.9 1022.9 0.0
30/05:00pm 15.8 14.4 9.7 67 3.2 N 7 9 4 5 1022.8 1022.8 0.0
30/04:30pm 17.6 14.7 9.8 60 4.1 NNE 15 20 8 11 1022.5 1022.5 0.0
30/04:00pm 18.5 15.5 9.3 55 4.8 NNE 15 20 8 11 1022.6 1022.6 0.0
30/03:30pm 19.0 15.6 9.2 53 5.2 NNE 17 24 9 13 1022.9 1022.9 0.0
30/03:00pm 19.4 15.5 9.3 52 5.3 NNE 20 28 11 15 1023.2 1023.2 0.0
30/02:30pm 19.4 15.5 9.3 52 5.3 N 20 28 11 15 1023.7 1023.7 0.0
30/02:00pm 19.5 15.7 9.1 51 5.5 NNE 19 30 10 16 1023.8 1023.8 0.0
30/01:30pm 19.2 15.1 8.8 51 5.4 NNE 20 28 11 15 1024.2 1024.2 0.0
30/01:00pm 19.3 15.7 10.0 55 5.0 NNE 19 26 10 14 1024.8 1024.8 0.0
30/12:30pm 19.3 16.6 10.3 56 4.9 NNE 15 22 8 12 1025.4 1025.4 0.0
30/12:00pm 18.7 15.7 10.8 60 4.3 N 17 24 9 13 1026.0 1026.0 0.0
30/11:30am 18.5 16.9 11.6 64 3.8 NNW 11 19 6 10 1026.6 1026.6 0.0
30/11:00am 17.4 17.0 12.3 72 2.8 N 6 7 3 4 1026.9 1026.9 0.0
30/10:30am 16.4 16.7 12.2 76 2.3 N 2 7 1 4 1027.4 1027.4 0.0
30/10:00am 14.6 14.8 11.7 83 1.6 NW 2 6 1 3 1027.8 1027.8 0.0
30/09:30am 13.1 13.9 12.5 96 0.3 CALM 0 2 0 1 1028.0 1028.0 0.0
30/09:00am 11.0 11.3 11.0 100 0.0 CALM 0 0 0 0 1028.0 1028.0 0.0
30/08:50am 10.3 10.4 10.3 100 0.0 CALM 0 0 0 0 1027.9 1027.9 0.0
30/08:30am 9.3 9.1 9.2 99 0.0 CALM 0 0 0 0 1028.1 1028.1 0.0
30/08:00am 7.8 7.3 7.7 99 0.0 CALM 0 0 0 0 1028.2 1028.2 0.0
30/07:30am 6.6 5.8 6.5 99 0.0 CALM 0 0 0 0 1028.2 1028.2 0.0
30/07:00am 6.9 6.2 6.8 99 0.0 CALM 0 0 0 0 1028.3 1028.3 0.0
30/06:56am 6.8 6.0 6.7 99 0.0 CALM 0 0 0 0 1028.2 1028.2 0.0
30/06:30am 6.6 5.8 6.5 99 0.0 CALM 0 0 0 0 1028.2 1028.2 0.0
30/06:10am 6.8 6.0 6.7 99 0.0 CALM 0 0 0 0 1028.0 1028.0 0.0
30/06:00am 6.8 6.0 6.7 99 0.0 CALM 0 0 0 0 1028.0 1028.0 0.0
30/05:30am 6.9 6.2 6.8 99 0.0 CALM 0 0 0 0 1027.7 1027.7 0.0
30/05:00am 7.0 6.3 6.9 99 0.0 CALM 0 0 0 0 1027.6 1027.6 0.0
30/04:37am 7.3 6.7 7.2 99 0.0 CALM 0 0 0 0 1027.3 1027.3 0.0
30/04:30am 7.5 6.9 7.4 99 0.0 CALM 0 0 0 0 1027.3 1027.3 0.0
30/04:23am 7.5 6.9 7.4 99 0.0 CALM 0 0 0 0 1027.3 1027.3 0.0
30/04:00am 7.8 7.3 7.7 99 0.0 CALM 0 0 0 0 1027.2 1027.2 0.0
30/03:44am 7.7 7.1 7.6 99 0.0 CALM 0 0 0 0 1027.1 1027.1 0.0
30/03:36am 7.6 7.0 7.5 99 0.0 CALM 0 0 0 0 1027.1 1027.1 0.0
30/03:30am 7.6 7.0 7.5 99 0.0 CALM 0 0 0 0 1027.2 1027.2 0.0
30/03:00am 7.7 7.1 7.6 99 0.0 CALM 0 0 0 0 1027.1 1027.1 0.0
30/02:30am 7.6 7.0 7.5 99 0.0 CALM 0 0 0 0 1027.3 1027.3 0.0
30/02:00am 7.8 7.3 7.7 99 0.0 CALM 0 0 0 0 1027.4 1027.4 0.0
30/01:30am 7.5 6.9 7.4 99 0.0 CALM 0 0 0 0 1027.4 1027.4 0.0
30/01:00am 8.0 7.5 7.9 99 0.0 CALM 0 0 0 0 1027.5 1027.5 0.0
30/12:30am 8.2 7.8 8.1 99 0.0 CALM 0 0 0 0 1027.6 1027.6 0.0
30/12:00am 8.7 8.4 8.6 99 0.0 CALM 0 0 0 0 1027.8 1027.8 0.0
 
Date/Time
EST
Temp
°C
App
Temp
°C
Dew
Point
°C
Rel
Hum
%
Delta-T
°C
Wind Press
QNH
hPa
Press
MSL
hPa
Rain since
9am
mm
Dir  Spd
km/h
Gust
km/h
Spd
kts
Gust
kts
29/11:43pm 9.0 8.8 8.9 99 0.0 CALM 0 0 0 0 1028.0 1028.0 0.0
29/11:30pm 9.2 9.0 9.1 99 0.0 CALM 0 0 0 0 1028.1 1028.1 0.0
29/11:00pm 9.6 9.5 9.5 99 0.0 CALM 0 0 0 0 1028.3 1028.3 0.0
29/10:30pm 10.7 10.9 10.5 99 0.1 CALM 0 0 0 0 1028.4 1028.4 0.0
29/10:16pm 10.9 11.1 10.7 99 0.1 CALM 0 0 0 0 1028.5 1028.5 0.0
29/10:11pm 10.7 10.9 10.5 99 0.1 CALM 0 0 0 0 1028.6 1028.6 0.0
29/10:00pm 10.7 10.9 10.5 99 0.1 CALM 0 0 0 0 1028.6 1028.6 0.0
29/09:58pm 10.7 10.9 10.5 99 0.1 CALM 0 0 0 0 1028.6 1028.6 0.0
29/09:31pm 10.2 10.3 10.1 99 0.1 CALM 0 0 0 0 1028.7 1028.7 0.0
29/09:30pm 10.2 10.3 10.1 99 0.1 CALM 0 0 0 0 1028.7 1028.7 0.0
29/09:00pm 10.0 10.0 9.9 99 0.1 CALM 0 0 0 0 1028.6 1028.6 0.0
29/08:47pm 9.7 9.6 9.6 99 0.1 CALM 0 0 0 0 1028.5 1028.5 0.0
29/08:30pm 9.6 9.5 9.5 99 0.0 CALM 0 0 0 0 1028.4 1028.4 0.0
29/08:27pm 9.7 9.6 9.6 99 0.1 CALM 0 0 0 0 1028.4 1028.4 0.0
29/08:00pm 10.3 10.4 10.1 99 0.1 CALM 0 0 0 0 1028.3 1028.3 0.0

Other formats

Comma delimited format used in spreadsheet applications
http://www.bom.gov.au/fwo/IDN60801/IDN60801.94755.axf

JavaScript Object Notation format (JSON) in row-major order
http://www.bom.gov.au/fwo/IDN60801/IDN60801.94755.json

Data quality

Most of these data are generated automatically and are frequently updated. Quality checks on data are not normally performed. It is possible for incorrect values to appear. Refer to information at About Latest Weather Observations and please check the disclaimer before using these data.